Hauptseite
METAR-TAF:

METAR-TAF

Flughäfen :

Shepherd Bay, Nunavut, Kanada

Breite: 68-49N, Länge: 093-26W, Höhe: 51 m

Beobachtung

Neuester Wetterbericht von vor 50 Minuten, um 03:04 UTC
Wind 15 kt aus Nordost, variierte zwischen Nordwest und Ost
Temperatur -7°C
Luftfeuchtigkeit 86%
Luftdruck 1006 hPa
Durchbrochene Bewölkung in der Höhe von 8000 ft
Geschlossene Wolkendecke in der Höhe von 9500 ft

METAR: CYUS 190304Z AUTO 05015KT 320V080 ////SM //// BKN080 OVC095 M07/M09 A2970

Zeit: 21:54 (03:54 UTC)


TAF: fehlend

Wetterbeobachtungen und Prognosen von mehr als 4000 Flughäfen (METAR und TAF Bericht).

Die verfügbaren Stationen werden durch gelbe und rote Markierungen auf der Karte dargestellt.

Führen Sie die Maus auf sie, um den Namen der Station zu sehen.

Darauf klicken, um die Beobachtung von Wetterbeobachtungen und Prognosen zu sehen.

Um die Karte zu ändern : klicken Sie auf den grünen Tasten mit einem schwarzen Kreuz Zum Vergrößern, auf den grünen Button mit einem Gedankenstrich zu verkleinern, oder auf die grünen Pfeile für benachbarte Karten.


METAR-TAF: